Time;durP1;ratioP1;P1;durP2;ratioP2;P2;SDS_P1;SDS_P2;PMS_P1;PMS_P2;Temp;Humidity;BMP_temperature;BMP_pressure;BME280_temperature;BME280_humidity;BME280_pressure;Samples;Min_cycle;Max_cycle;Signal;HPM_P1;HPM_P2
2022/09/07 00:00:22;;;;;;;21.58;19.27;;;15.60;99.90;;;;;;2112878;28;20031;-74
2022/09/07 00:01:22;;;;;;;21.52;19.33;;;15.60;99.90;;;;;;2121716;27;20080;-74
2022/09/07 00:02:23;;;;;;;21.80;19.50;;;15.60;99.90;;;;;;2122048;27;20038;-73
2022/09/07 00:03:24;;;;;;;23.08;20.67;;;15.60;99.90;;;;;;2113356;28;20061;-73
2022/09/07 00:04:25;;;;;;;21.98;19.45;;;15.60;99.90;;;;;;2113363;28;20023;-73
2022/09/07 00:05:27;;;;;;;21.45;19.35;;;15.50;99.90;;;;;;2122462;27;20023;-74
2022/09/07 00:06:28;;;;;;;20.48;18.45;;;15.60;99.90;;;;;;2113685;27;20054;-74
2022/09/07 00:07:29;;;;;;;20.88;18.67;;;15.60;99.90;;;;;;2113789;28;20066;-73
2022/09/07 00:08:30;;;;;;;21.50;19.20;;;15.60;99.90;;;;;;2113908;28;20470;-74
2022/09/07 00:09:30;;;;;;;21.77;19.48;;;15.50;99.90;;;;;;2113464;28;20026;-73
2022/09/07 00:10:31;;;;;;;22.58;20.25;;;15.50;99.90;;;;;;2113580;28;20070;-74
2022/09/07 00:11:32;;;;;;;22.25;19.98;;;15.50;99.90;;;;;;2113652;28;20122;-74
2022/09/07 00:12:32;;;;;;;22.95;20.58;;;15.50;99.90;;;;;;2113629;28;20012;-73
2022/09/07 00:13:35;;;;;;;22.23;19.98;;;15.50;99.90;;;;;;2113700;28;20389;-74
2022/09/07 00:14:36;;;;;;;24.45;20.40;;;15.50;99.90;;;;;;2114038;28;20035;-74
2022/09/07 00:15:40;;;;;;;23.90;20.42;;;15.50;99.90;;;;;;2113811;28;20420;-76
2022/09/07 00:16:41;;;;;;;23.67;21.17;;;15.50;99.90;;;;;;2113714;28;20036;-73
2022/09/07 00:17:42;;;;;;;23.38;20.88;;;15.50;99.90;;;;;;2113838;28;20028;-74
2022/09/07 00:18:43;;;;;;;22.92;20.63;;;15.50;99.90;;;;;;2113634;28;20023;-74
2022/09/07 00:19:44;;;;;;;24.70;21.38;;;15.50;99.90;;;;;;2113137;28;20093;-74
2022/09/07 00:20:45;;;;;;;23.13;20.75;;;15.40;99.90;;;;;;2114931;27;20020;-74
2022/09/07 00:21:45;;;;;;;23.70;21.13;;;15.50;99.90;;;;;;2121384;27;20023;-74
2022/09/07 00:22:46;;;;;;;23.00;20.50;;;15.50;99.90;;;;;;2121398;27;20156;-74
2022/09/07 00:23:48;;;;;;;23.15;20.60;;;15.40;99.90;;;;;;2125868;27;20027;-73
2022/09/07 00:24:49;;;;;;;23.67;21.02;;;15.40;99.90;;;;;;2130893;27;20493;-73
2022/09/07 00:25:49;;;;;;;22.30;20.00;;;15.40;99.90;;;;;;2130794;27;20027;-74
2022/09/07 00:26:54;;;;;;;22.95;20.60;;;15.40;99.90;;;;;;2130780;27;20551;-73
2022/09/07 00:27:54;;;;;;;22.02;19.75;;;15.40;99.90;;;;;;2130709;27;20027;-74
2022/09/07 00:28:57;;;;;;;22.17;19.83;;;15.40;99.90;;;;;;2130316;27;20023;-74
2022/09/07 00:29:58;;;;;;;21.58;19.40;;;15.40;99.90;;;;;;2130526;27;20022;-73
2022/09/07 00:30:58;;;;;;;21.80;19.65;;;15.40;99.90;;;;;;2130550;27;20227;-75
2022/09/07 00:31:59;;;;;;;21.50;19.35;;;15.40;99.90;;;;;;2130513;27;20053;-74
2022/09/07 00:33:00;;;;;;;21.77;19.48;;;15.40;99.90;;;;;;2130625;27;20045;-74
2022/09/07 00:34:01;;;;;;;21.48;19.27;;;15.40;99.90;;;;;;2130425;27;20026;-74
2022/09/07 00:35:02;;;;;;;21.33;19.13;;;15.40;99.90;;;;;;2130730;27;20022;-75
2022/09/07 00:36:03;;;;;;;22.45;20.05;;;15.40;99.90;;;;;;2130632;27;20722;-74
2022/09/07 00:37:03;;;;;;;22.15;19.75;;;15.30;99.90;;;;;;2130547;27;20026;-75
2022/09/07 00:38:04;;;;;;;21.83;19.63;;;15.30;99.90;;;;;;2130488;27;20142;-74
2022/09/07 00:39:05;;;;;;;21.45;19.33;;;15.30;99.90;;;;;;2120881;27;20102;-74
2022/09/07 00:40:06;;;;;;;23.25;20.85;;;15.30;99.90;;;;;;2119846;27;20488;-74
2022/09/07 00:41:07;;;;;;;22.45;20.15;;;15.30;99.90;;;;;;2121252;27;20051;-74
2022/09/07 00:42:08;;;;;;;22.42;20.17;;;15.30;99.90;;;;;;2121481;28;20472;-75
2022/09/07 00:43:27;;;;;;;22.00;19.63;;;15.30;99.90;;;;;;2121940;27;20055;-74
2022/09/07 00:45:02;;;;;;;21.77;19.58;;;15.30;99.90;;;;;;2121985;27;20466;-74
2022/09/07 00:46:05;;;;;;;21.15;18.95;;;15.30;99.90;;;;;;2121573;28;20027;-74
2022/09/07 00:47:14;;;;;;;22.20;19.90;;;15.20;99.90;;;;;;2121478;28;20071;-74
2022/09/07 00:48:18;;;;;;;21.58;19.38;;;15.20;99.90;;;;;;2122480;27;20665;-75
2022/09/07 00:49:21;;;;;;;21.70;19.50;;;15.20;99.90;;;;;;2122473;27;20019;-75
2022/09/07 00:50:51;;;;;;;21.63;19.42;;;15.30;99.90;;;;;;2122131;27;20774;-75
2022/09/07 00:51:56;;;;;;;22.13;19.73;;;15.20;99.90;;;;;;2122056;27;20045;-75
2022/09/07 00:53:02;;;;;;;20.92;18.73;;;15.20;99.90;;;;;;2121969;27;20072;-75
2022/09/07 00:54:16;;;;;;;21.27;19.08;;;15.20;99.90;;;;;;2122001;28;20027;-75
2022/09/07 00:55:17;;;;;;;21.13;19.00;;;15.20;99.90;;;;;;2121940;27;20030;-76
2022/09/07 00:56:20;;;;;;;21.95;19.58;;;15.20;99.90;;;;;;2121881;27;20028;-75
2022/09/07 00:57:21;;;;;;;21.42;19.23;;;15.20;99.90;;;;;;2121704;27;20102;-75
2022/09/07 00:58:23;;;;;;;22.35;19.95;;;15.30;99.90;;;;;;2125498;27;20679;-74
2022/09/07 00:59:29;;;;;;;22.75;20.30;;;15.30;99.90;;;;;;2129758;27;20084;-75
2022/09/07 01:00:30;;;;;;;23.10;20.70;;;15.30;99.90;;;;;;2130122;27;20054;-74
2022/09/07 01:01:32;;;;;;;22.90;20.58;;;15.30;99.90;;;;;;2130739;27;20045;-74
2022/09/07 01:02:33;;;;;;;21.60;19.42;;;15.30;99.90;;;;;;2130588;27;20023;-75
2022/09/07 01:03:39;;;;;;;23.13;20.73;;;15.20;99.90;;;;;;2130603;27;20030;-74
2022/09/07 01:04:40;;;;;;;21.38;19.23;;;15.20;99.90;;;;;;2130718;27;20037;-74
2022/09/07 01:05:47;;;;;;;22.85;20.45;;;15.20;99.90;;;;;;2128287;27;20047;-75
2022/09/07 01:06:48;;;;;;;23.05;20.73;;;15.20;99.90;;;;;;2121331;27;20038;-75
2022/09/07 01:07:49;;;;;;;23.30;20.80;;;15.20;99.90;;;;;;2121310;27;20616;-75
2022/09/07 01:08:50;;;;;;;23.50;20.88;;;15.20;99.90;;;;;;2122029;27;20045;-75
2022/09/07 01:09:51;;;;;;;23.60;21.20;;;15.20;99.90;;;;;;2121070;27;20023;-77
2022/09/07 01:10:52;;;;;;;22.25;20.05;;;15.30;99.90;;;;;;2121213;27;20031;-76
2022/09/07 01:11:56;;;;;;;22.85;20.55;;;15.30;99.90;;;;;;2122062;27;20076;-74
2022/09/07 01:12:58;;;;;;;22.50;20.25;;;15.30;99.90;;;;;;2122119;27;20052;-74
2022/09/07 01:14:01;;;;;;;23.42;21.02;;;15.30;99.90;;;;;;2121188;28;20599;-76
2022/09/07 01:15:02;;;;;;;23.40;21.00;;;15.20;99.90;;;;;;2121678;28;20028;-75
2022/09/07 01:16:37;;;;;;;24.17;21.45;;;15.30;99.90;;;;;;2121959;27;20019;-75
2022/09/07 01:17:47;;;;;;;24.30;21.40;;;15.20;99.90;;;;;;2107143;27;20064;-75
2022/09/07 01:19:34;;;;;;;24.23;21.80;;;15.20;99.90;;;;;;2126092;27;20026;-74
2022/09/07 01:20:54;;;;;;;24.42;21.88;;;15.30;99.90;;;;;;2094060;28;20163;-74
2022/09/07 01:22:13;;;;;;;24.85;22.25;;;15.20;99.90;;;;;;2113589;28;20031;-75
2022/09/07 01:23:29;;;;;;;25.00;22.30;;;15.20;99.90;;;;;;2113365;28;20020;-74
2022/09/07 01:24:54;;;;;;;24.13;21.63;;;15.20;99.90;;;;;;2115009;28;20020;-75
2022/09/07 01:26:04;;;;;;;23.02;20.60;;;15.20;99.90;;;;;;2115375;28;20031;-74
2022/09/07 01:27:26;;;;;;;24.58;21.92;;;15.20;99.90;;;;;;2115521;28;20031;-75
2022/09/07 01:28:32;;;;;;;24.08;21.58;;;15.20;99.90;;;;;;2115042;28;20024;-75
2022/09/07 01:29:51;;;;;;;24.13;21.63;;;15.20;99.90;;;;;;2114943;28;20008;-74
2022/09/07 01:30:58;;;;;;;23.33;20.83;;;15.20;99.90;;;;;;2114864;28;20036;-75
2022/09/07 01:32:04;;;;;;;25.27;22.48;;;15.10;99.90;;;;;;2115227;28;20054;-75
2022/09/07 01:33:07;;;;;;;24.38;21.75;;;15.20;99.90;;;;;;2115285;28;20032;-74
2022/09/07 01:34:27;;;;;;;23.70;21.30;;;15.10;99.90;;;;;;2115110;28;20031;-75
2022/09/07 01:36:04;;;;;;;23.73;21.30;;;15.20;99.90;;;;;;2115948;27;20574;-74
2022/09/07 01:37:16;;;;;;;24.88;22.17;;;15.20;99.90;;;;;;2122825;27;20028;-74
2022/09/07 01:38:26;;;;;;;23.50;21.10;;;15.10;99.90;;;;;;2122883;27;20019;-74
2022/09/07 01:39:35;;;;;;;25.67;21.95;;;15.10;99.90;;;;;;2123106;27;20560;-74
2022/09/07 01:40:50;;;;;;;23.80;21.30;;;15.20;99.90;;;;;;2122693;27;20297;-74
2022/09/07 01:41:57;;;;;;;24.13;21.67;;;15.10;99.90;;;;;;2123287;27;20566;-75
2022/09/07 01:43:11;;;;;;;24.02;21.50;;;15.20;99.90;;;;;;2123686;27;20397;-74
2022/09/07 01:44:26;;;;;;;23.45;21.05;;;15.20;99.90;;;;;;2123575;27;20092;-75
2022/09/07 01:45:31;;;;;;;24.25;21.65;;;15.10;99.90;;;;;;2122979;27;20163;-75
2022/09/07 01:46:42;;;;;;;23.83;21.27;;;15.10;99.90;;;;;;2122923;27;20019;-75
2022/09/07 01:47:47;;;;;;;24.42;21.85;;;15.10;99.90;;;;;;2123552;27;20031;-74
2022/09/07 01:48:51;;;;;;;24.00;21.48;;;15.10;99.90;;;;;;2123739;27;20122;-74
2022/09/07 01:50:14;;;;;;;24.92;22.33;;;15.10;99.90;;;;;;2124007;27;20070;-74
2022/09/07 01:51:17;;;;;;;24.25;21.75;;;15.10;99.90;;;;;;2124318;27;20114;-75
2022/09/07 01:52:36;;;;;;;24.20;21.70;;;15.10;99.90;;;;;;2123789;27;20107;-74
2022/09/07 01:53:46;;;;;;;22.80;20.40;;;15.10;99.90;;;;;;2122730;27;20487;-74
2022/09/07 01:54:54;;;;;;;22.13;19.77;;;15.10;99.90;;;;;;2123009;27;20019;-75
2022/09/07 01:56:03;;;;;;;22.02;19.73;;;15.10;99.90;;;;;;2122846;27;20039;-75
2022/09/07 01:57:12;;;;;;;21.20;19.10;;;15.10;99.90;;;;;;2122974;27;20765;-74
2022/09/07 01:58:41;;;;;;;22.60;20.17;;;15.10;99.90;;;;;;2125324;27;20035;-77
2022/09/07 02:00:07;;;;;;;21.35;19.08;;;15.10;99.90;;;;;;2129298;27;20117;-74
2022/09/07 02:01:31;;;;;;;21.35;19.15;;;15.10;99.90;;;;;;2131954;27;20031;-74
2022/09/07 02:02:45;;;;;;;22.63;20.23;;;15.10;99.90;;;;;;2130859;27;20441;-74
2022/09/07 02:04:07;;;;;;;22.33;19.83;;;15.10;99.90;;;;;;2131052;27;20026;-75
2022/09/07 02:05:15;;;;;;;22.75;20.35;;;15.10;99.90;;;;;;2131489;27;20039;-74
2022/09/07 02:06:23;;;;;;;21.67;19.40;;;15.10;99.90;;;;;;2123977;27;20031;-75
2022/09/07 02:07:31;;;;;;;22.83;20.42;;;15.00;99.90;;;;;;2122675;27;20852;-74
2022/09/07 02:08:50;;;;;;;21.50;19.30;;;15.00;99.90;;;;;;2122958;27;20026;-77
2022/09/07 02:09:54;;;;;;;22.70;20.35;;;15.10;99.90;;;;;;2122724;27;20392;-74
2022/09/07 02:11:00;;;;;;;22.33;20.02;;;15.10;99.90;;;;;;2123105;27;20030;-75
2022/09/07 02:12:06;;;;;;;21.55;19.35;;;15.10;99.90;;;;;;2123095;27;20080;-75
2022/09/07 02:13:33;;;;;;;21.65;19.45;;;15.10;99.90;;;;;;2121790;27;20028;-75
2022/09/07 02:14:39;;;;;;;21.75;19.50;;;15.00;99.90;;;;;;2109649;27;20097;-74
2022/09/07 02:16:07;;;;;;;22.88;20.42;;;15.10;99.90;;;;;;2131868;27;20030;-74
2022/09/07 02:17:16;;;;;;;22.20;20.00;;;15.10;99.90;;;;;;2131760;27;20031;-74
2022/09/07 02:18:19;;;;;;;22.65;20.17;;;15.10;99.90;;;;;;2131578;27;20027;-74
2022/09/07 02:19:21;;;;;;;22.35;20.10;;;15.10;99.90;;;;;;2131787;27;20019;-74
2022/09/07 02:20:32;;;;;;;22.05;19.83;;;15.00;99.90;;;;;;2131685;27;20074;-75
2022/09/07 02:21:40;;;;;;;22.63;20.23;;;15.00;99.90;;;;;;2131673;27;20026;-76
2022/09/07 02:22:45;;;;;;;22.30;19.98;;;15.00;99.90;;;;;;2131793;27;20062;-74
2022/09/07 02:23:50;;;;;;;22.10;19.70;;;15.00;99.90;;;;;;2131629;27;20034;-74
2022/09/07 02:24:56;;;;;;;22.48;20.08;;;15.00;99.90;;;;;;2131761;27;20111;-74
2022/09/07 02:26:04;;;;;;;22.63;20.33;;;15.00;99.90;;;;;;2131531;27;20022;-75
2022/09/07 02:27:11;;;;;;;22.88;20.48;;;15.00;99.90;;;;;;2131102;27;20440;-76
2022/09/07 02:28:16;;;;;;;23.30;20.50;;;15.00;99.90;;;;;;2131001;27;20428;-74
2022/09/07 02:29:16;;;;;;;22.70;20.38;;;15.00;99.90;;;;;;2131625;27;20723;-75
2022/09/07 02:30:17;;;;;;;22.02;19.80;;;15.00;99.90;;;;;;2131460;27;20051;-75
2022/09/07 02:31:18;;;;;;;22.58;20.23;;;15.00;99.90;;;;;;2125968;27;20031;-75
2022/09/07 02:32:19;;;;;;;21.65;19.45;;;15.00;99.90;;;;;;2113646;28;20502;-75
2022/09/07 02:33:20;;;;;;;21.58;19.38;;;15.00;99.90;;;;;;2122132;27;20073;-75
2022/09/07 02:34:21;;;;;;;21.95;19.73;;;15.00;99.90;;;;;;2123393;27;20071;-74
2022/09/07 02:35:22;;;;;;;22.50;20.13;;;15.00;99.90;;;;;;2121962;27;20056;-75
2022/09/07 02:36:28;;;;;;;22.17;19.88;;;15.00;99.90;;;;;;2123099;27;20068;-75
2022/09/07 02:37:29;;;;;;;22.17;19.88;;;15.00;99.90;;;;;;2122952;27;20027;-75
2022/09/07 02:38:32;;;;;;;22.05;19.83;;;15.00;99.90;;;;;;2122455;27;20019;-75
2022/09/07 02:39:33;;;;;;;25.05;19.65;;;15.00;99.90;;;;;;2113723;27;20019;-75
2022/09/07 02:40:34;;;;;;;23.50;20.40;;;15.00;99.90;;;;;;2113781;28;20069;-75
2022/09/07 02:41:41;;;;;;;21.67;19.48;;;15.00;99.90;;;;;;2122317;27;20031;-74
2022/09/07 02:42:42;;;;;;;21.92;19.63;;;15.00;99.90;;;;;;2122959;27;20049;-75
2022/09/07 02:43:43;;;;;;;21.75;19.55;;;14.90;99.90;;;;;;2122242;27;20023;-74
2022/09/07 02:44:47;;;;;;;22.20;19.90;;;15.00;99.90;;;;;;2122501;27;20065;-75
2022/09/07 02:46:02;;;;;;;20.98;18.77;;;14.90;99.90;;;;;;2122962;27;20432;-75
2022/09/07 02:47:11;;;;;;;22.00;19.55;;;14.90;99.90;;;;;;2123531;27;20031;-74
2022/09/07 02:48:29;;;;;;;22.70;20.33;;;14.90;99.90;;;;;;2124232;27;20031;-75
2022/09/07 02:50:04;;;;;;;21.80;19.50;;;14.90;99.90;;;;;;2123732;27;20054;-76
2022/09/07 02:51:52;;;;;;;23.63;18.98;;;14.90;99.90;;;;;;2123882;27;20027;-76
2022/09/07 02:53:08;;;;;;;20.83;18.73;;;14.90;99.90;;;;;;2124593;27;20023;-75
2022/09/07 02:54:22;;;;;;;21.70;19.38;;;14.90;99.90;;;;;;2123941;27;20051;-76
2022/09/07 02:55:33;;;;;;;22.17;19.73;;;14.90;99.90;;;;;;2124137;27;20046;-75
2022/09/07 02:56:45;;;;;;;20.52;18.52;;;14.90;99.90;;;;;;2124332;27;20038;-75
2022/09/07 02:58:07;;;;;;;22.13;19.83;;;14.90;99.90;;;;;;2123657;27;20027;-74
2022/09/07 02:59:26;;;;;;;21.35;19.15;;;14.90;99.90;;;;;;2123871;27;20031;-75
2022/09/07 03:00:32;;;;;;;20.77;18.67;;;14.90;99.90;;;;;;2124262;27;20147;-74
2022/09/07 03:01:55;;;;;;;22.25;19.63;;;14.90;99.90;;;;;;2124177;27;20106;-74
2022/09/07 03:03:21;;;;;;;21.73;19.42;;;14.90;99.90;;;;;;2123638;27;20023;-74
2022/09/07 03:04:28;;;;;;;22.88;20.48;;;14.90;99.90;;;;;;2122794;27;20092;-74
2022/09/07 03:05:39;;;;;;;23.85;19.98;;;14.90;99.90;;;;;;2114942;27;20024;-74
2022/09/07 03:06:47;;;;;;;22.50;19.98;;;14.90;99.90;;;;;;2122851;27;20128;-75
2022/09/07 03:08:01;;;;;;;21.27;19.10;;;14.80;99.90;;;;;;2123313;27;20046;-74
2022/09/07 03:09:08;;;;;;;21.58;19.27;;;14.80;99.90;;;;;;2122431;27;20035;-74
2022/09/07 03:10:10;;;;;;;22.92;18.92;;;14.80;99.90;;;;;;2122009;27;20031;-74
2022/09/07 03:11:12;;;;;;;21.35;19.23;;;14.80;99.90;;;;;;2130339;27;20026;-74
2022/09/07 03:12:13;;;;;;;21.13;18.92;;;14.80;99.90;;;;;;2131702;27;20026;-75
2022/09/07 03:13:22;;;;;;;21.17;18.98;;;14.80;99.90;;;;;;2131703;27;20441;-75
2022/09/07 03:14:25;;;;;;;22.23;19.80;;;14.80;99.90;;;;;;2131370;27;20417;-75
2022/09/07 03:15:27;;;;;;;20.98;18.77;;;14.80;99.90;;;;;;2123352;27;20023;-74
2022/09/07 03:16:27;;;;;;;21.00;18.90;;;14.80;99.90;;;;;;2130912;27;20033;-76
2022/09/07 03:17:28;;;;;;;23.83;19.98;;;14.80;99.90;;;;;;2130580;27;20030;-74
2022/09/07 03:18:29;;;;;;;21.25;19.13;;;14.80;99.90;;;;;;2121939;27;20038;-74
2022/09/07 03:19:29;;;;;;;22.40;20.00;;;14.80;99.90;;;;;;2130458;27;20439;-74
2022/09/07 03:20:30;;;;;;;22.38;20.05;;;14.80;99.90;;;;;;2131187;27;20668;-75
2022/09/07 03:21:31;;;;;;;22.90;19.58;;;14.80;99.90;;;;;;2131306;27;20030;-75
2022/09/07 03:22:32;;;;;;;21.27;19.08;;;14.80;99.90;;;;;;2131351;27;20125;-74
2022/09/07 03:23:33;;;;;;;21.27;19.08;;;14.80;99.90;;;;;;2131264;27;20075;-74
2022/09/07 03:24:35;;;;;;;21.95;19.67;;;14.80;99.90;;;;;;2131309;27;20143;-74
2022/09/07 03:25:36;;;;;;;21.13;18.83;;;14.80;99.90;;;;;;2131099;27;20031;-74
2022/09/07 03:26:40;;;;;;;21.48;19.20;;;14.80;99.90;;;;;;2131237;27;20118;-74
2022/09/07 03:27:41;;;;;;;21.17;19.08;;;14.80;99.90;;;;;;2126988;27;20084;-75
2022/09/07 03:28:42;;;;;;;21.85;19.50;;;14.80;99.90;;;;;;2122439;27;20407;-75
2022/09/07 03:29:42;;;;;;;21.42;19.27;;;14.80;99.90;;;;;;2122117;27;20023;-75
2022/09/07 03:30:45;;;;;;;22.30;20.00;;;14.80;99.90;;;;;;2122757;27;20173;-74
2022/09/07 03:31:46;;;;;;;22.67;20.35;;;14.80;99.90;;;;;;2122601;27;20076;-74
2022/09/07 03:32:47;;;;;;;21.88;19.58;;;14.80;99.90;;;;;;2122679;27;20538;-75
2022/09/07 03:33:48;;;;;;;21.05;18.88;;;14.80;99.90;;;;;;2121767;27;20546;-75
2022/09/07 03:34:49;;;;;;;23.20;20.73;;;14.80;99.90;;;;;;2121889;27;20140;-74
2022/09/07 03:35:58;;;;;;;22.95;20.15;;;14.80;99.90;;;;;;2122388;27;20031;-75
2022/09/07 03:36:59;;;;;;;20.77;18.58;;;14.80;99.90;;;;;;2122508;27;20046;-74
2022/09/07 03:38:00;;;;;;;22.20;19.77;;;14.80;99.90;;;;;;2122518;27;20028;-75
2022/09/07 03:39:01;;;;;;;21.85;19.45;;;14.80;99.90;;;;;;2122303;27;20015;-74
2022/09/07 03:40:04;;;;;;;22.80;19.27;;;14.80;99.90;;;;;;2121510;27;20803;-74
2022/09/07 03:41:06;;;;;;;22.20;19.92;;;14.80;99.90;;;;;;2121779;27;20031;-74
2022/09/07 03:42:06;;;;;;;25.33;18.88;;;14.80;99.90;;;;;;2122445;27;20092;-75
2022/09/07 03:43:07;;;;;;;20.63;18.63;;;14.80;99.90;;;;;;2122490;27;20153;-74
2022/09/07 03:44:08;;;;;;;21.98;19.67;;;14.90;99.90;;;;;;2122472;27;20503;-74
2022/09/07 03:45:09;;;;;;;21.27;19.08;;;14.80;99.90;;;;;;2122265;27;20055;-74
2022/09/07 03:46:10;;;;;;;22.35;20.05;;;14.80;99.90;;;;;;2113097;28;20077;-76
2022/09/07 03:47:11;;;;;;;22.23;19.75;;;14.90;99.90;;;;;;2105248;28;20028;-76
2022/09/07 03:48:12;;;;;;;22.33;20.00;;;14.90;99.90;;;;;;2113926;28;20051;-76
2022/09/07 03:49:14;;;;;;;22.23;19.92;;;14.90;99.90;;;;;;2122449;27;20027;-77
2022/09/07 03:50:15;;;;;;;21.95;19.73;;;14.90;99.90;;;;;;2122843;27;20027;-76
2022/09/07 03:51:18;;;;;;;22.10;19.75;;;14.90;99.90;;;;;;2122268;27;20026;-76
2022/09/07 03:52:19;;;;;;;24.15;20.80;;;14.90;99.90;;;;;;2114500;27;20031;-76
2022/09/07 03:53:19;;;;;;;22.17;19.75;;;14.90;99.90;;;;;;2122522;27;20015;-76
2022/09/07 03:54:21;;;;;;;22.83;20.50;;;14.90;99.90;;;;;;2122863;27;20385;-76
2022/09/07 03:55:22;;;;;;;21.05;18.90;;;14.90;99.90;;;;;;2122746;27;20023;-76
2022/09/07 03:56:23;;;;;;;22.30;20.00;;;14.90;99.90;;;;;;2122737;27;20027;-77
2022/09/07 03:57:24;;;;;;;21.13;18.98;;;14.90;99.90;;;;;;2122498;27;20419;-76
2022/09/07 03:58:25;;;;;;;22.38;20.08;;;14.90;99.90;;;;;;2126232;27;20018;-74
2022/09/07 03:59:26;;;;;;;22.33;19.92;;;14.90;99.90;;;;;;2131272;27;20154;-75
2022/09/07 04:00:26;;;;;;;22.10;19.63;;;14.90;99.90;;;;;;2131023;27;20370;-75
2022/09/07 04:01:27;;;;;;;22.63;20.23;;;14.90;99.90;;;;;;2131098;27;20064;-75
2022/09/07 04:02:28;;;;;;;20.92;18.83;;;14.90;99.90;;;;;;2131078;27;20144;-74
2022/09/07 04:03:29;;;;;;;21.83;18.88;;;14.90;99.90;;;;;;2121810;27;20027;-74
2022/09/07 04:04:29;;;;;;;22.27;19.98;;;14.90;99.90;;;;;;2130507;27;20027;-75
2022/09/07 04:05:31;;;;;;;24.67;22.13;;;14.90;99.90;;;;;;2130110;27;20037;-74
2022/09/07 04:06:32;;;;;;;23.58;21.00;;;14.90;99.90;;;;;;2117921;27;20063;-74
2022/09/07 04:07:32;;;;;;;23.33;20.83;;;14.90;99.90;;;;;;2131050;27;20052;-74
2022/09/07 04:08:35;;;;;;;22.73;20.33;;;14.90;99.90;;;;;;2130641;27;20629;-73
2022/09/07 04:09:36;;;;;;;22.45;20.15;;;14.90;99.90;;;;;;2130432;27;20033;-74
2022/09/07 04:10:40;;;;;;;22.13;19.83;;;14.90;99.90;;;;;;2130917;27;20026;-74
2022/09/07 04:11:41;;;;;;;21.27;19.08;;;14.90;99.90;;;;;;2131234;27;20110;-74
2022/09/07 04:12:42;;;;;;;21.13;18.95;;;14.90;99.90;;;;;;2131258;27;20062;-74
2022/09/07 04:13:43;;;;;;;21.55;19.42;;;14.90;99.90;;;;;;2131062;27;20030;-74
2022/09/07 04:14:44;;;;;;;20.95;18.88;;;14.90;99.90;;;;;;2131120;27;20019;-74
2022/09/07 04:15:45;;;;;;;21.75;19.45;;;14.90;99.90;;;;;;2130879;27;20095;-74
2022/09/07 04:16:46;;;;;;;20.98;18.88;;;14.80;99.90;;;;;;2131047;27;20026;-73
2022/09/07 04:17:47;;;;;;;22.13;19.73;;;14.90;99.90;;;;;;2130502;27;20151;-74
2022/09/07 04:18:49;;;;;;;20.42;18.40;;;14.80;99.90;;;;;;2130650;27;20110;-74
2022/09/07 04:19:49;;;;;;;20.85;18.77;;;14.90;99.90;;;;;;2131405;27;20373;-74
2022/09/07 04:20:50;;;;;;;22.73;19.35;;;14.90;99.90;;;;;;2131158;27;20031;-74
2022/09/07 04:21:51;;;;;;;20.73;18.63;;;14.90;99.90;;;;;;2130756;27;20497;-73
2022/09/07 04:22:52;;;;;;;22.15;18.98;;;14.90;99.90;;;;;;2130602;27;20029;-72
2022/09/07 04:23:53;;;;;;;20.55;18.38;;;14.90;99.90;;;;;;2123393;27;20077;-72
2022/09/07 04:24:54;;;;;;;21.15;18.95;;;14.90;99.90;;;;;;2118014;27;20035;-72
2022/09/07 04:25:55;;;;;;;20.75;18.63;;;14.90;99.90;;;;;;2127383;27;20058;-72
2022/09/07 04:26:55;;;;;;;21.25;18.63;;;14.90;99.90;;;;;;2125540;27;20023;-72
2022/09/07 04:27:56;;;;;;;20.65;18.55;;;14.90;99.90;;;;;;2123093;27;20031;-72
2022/09/07 04:29:01;;;;;;;22.08;19.70;;;14.90;99.90;;;;;;2121589;27;20150;-73
2022/09/07 04:30:02;;;;;;;21.17;18.63;;;14.90;99.90;;;;;;2113090;28;20028;-73
2022/09/07 04:31:03;;;;;;;20.75;18.65;;;14.90;99.90;;;;;;2121415;27;20114;-74
2022/09/07 04:32:04;;;;;;;21.92;19.63;;;14.90;99.90;;;;;;2122288;27;20492;-73
2022/09/07 04:33:04;;;;;;;20.70;18.60;;;14.90;99.90;;;;;;2122626;27;20170;-73
2022/09/07 04:34:06;;;;;;;20.58;18.40;;;14.90;99.90;;;;;;2122504;27;20023;-74
2022/09/07 04:35:08;;;;;;;20.33;18.30;;;14.90;99.90;;;;;;2123779;27;20023;-73
2022/09/07 04:36:08;;;;;;;21.20;19.00;;;14.90;99.90;;;;;;2121298;28;20543;-73
2022/09/07 04:37:09;;;;;;;20.70;18.50;;;15.00;99.90;;;;;;2113776;28;20038;-74
2022/09/07 04:38:14;;;;;;;21.08;18.65;;;15.00;99.90;;;;;;2122439;28;20438;-73
2022/09/07 04:39:15;;;;;;;20.10;18.10;;;15.00;99.90;;;;;;2124014;27;20023;-73
2022/09/07 04:40:16;;;;;;;20.63;18.42;;;15.00;99.90;;;;;;2122698;28;20023;-74
2022/09/07 04:41:17;;;;;;;20.38;18.17;;;15.00;99.90;;;;;;2122738;28;20370;-73
2022/09/07 04:42:18;;;;;;;21.08;18.70;;;15.00;99.90;;;;;;2123425;28;20026;-73
2022/09/07 04:43:18;;;;;;;20.98;18.88;;;15.10;99.90;;;;;;2123639;28;20027;-73
2022/09/07 04:44:19;;;;;;;21.48;19.25;;;15.10;99.90;;;;;;2123950;28;20027;-73
2022/09/07 04:45:20;;;;;;;21.20;19.00;;;15.10;99.90;;;;;;2123380;28;20509;-73
2022/09/07 04:46:23;;;;;;;20.92;18.77;;;15.10;99.90;;;;;;2123250;28;20033;-73
2022/09/07 04:47:24;;;;;;;21.58;19.38;;;15.10;99.90;;;;;;2123920;27;20329;-73
2022/09/07 04:48:25;;;;;;;21.83;18.15;;;15.20;99.90;;;;;;2123375;28;20072;-73
2022/09/07 04:49:26;;;;;;;20.75;17.95;;;15.20;99.90;;;;;;2121215;28;20034;-73
2022/09/07 04:50:26;;;;;;;21.20;19.05;;;15.20;99.90;;;;;;2121185;28;20023;-73
2022/09/07 04:51:29;;;;;;;21.48;18.88;;;15.20;99.90;;;;;;2121909;28;20035;-73
2022/09/07 04:52:30;;;;;;;19.73;17.70;;;15.30;99.90;;;;;;2121612;28;20038;-74
2022/09/07 04:53:31;;;;;;;20.42;18.33;;;15.30;99.90;;;;;;2121727;28;20020;-74
2022/09/07 04:54:31;;;;;;;20.33;18.27;;;15.30;99.90;;;;;;2121949;27;20029;-73
2022/09/07 04:55:33;;;;;;;19.83;17.73;;;15.40;99.90;;;;;;2122265;28;20027;-74
2022/09/07 04:56:34;;;;;;;20.92;18.73;;;15.40;99.90;;;;;;2122247;27;20609;-73
2022/09/07 04:57:34;;;;;;;20.33;18.30;;;15.40;99.90;;;;;;2121729;27;20027;-74
2022/09/07 04:58:35;;;;;;;20.15;18.05;;;15.40;99.90;;;;;;2127892;27;20050;-74
2022/09/07 04:59:36;;;;;;;19.05;17.15;;;15.40;99.90;;;;;;2132588;27;20042;-74
2022/09/07 05:00:38;;;;;;;21.40;19.20;;;15.50;99.90;;;;;;2132329;27;20034;-74
2022/09/07 05:01:38;;;;;;;19.88;17.88;;;15.50;99.90;;;;;;2132431;27;20094;-75
2022/09/07 05:02:39;;;;;;;20.38;18.27;;;15.50;99.90;;;;;;2127248;27;20027;-74
2022/09/07 05:03:40;;;;;;;18.40;16.35;;;15.60;99.90;;;;;;2129662;27;20027;-73
2022/09/07 05:04:41;;;;;;;19.33;17.30;;;15.60;99.90;;;;;;2122916;27;20038;-74
2022/09/07 05:05:42;;;;;;;18.90;17.00;;;15.70;99.90;;;;;;2114467;28;20507;-74
2022/09/07 05:06:42;;;;;;;18.65;16.75;;;15.80;99.90;;;;;;2115291;28;20097;-74
2022/09/07 05:07:43;;;;;;;18.73;16.85;;;15.80;99.90;;;;;;2123112;27;20031;-74
2022/09/07 05:08:47;;;;;;;18.88;16.88;;;15.90;99.90;;;;;;2123914;27;20031;-74
2022/09/07 05:09:47;;;;;;;18.48;16.45;;;16.10;99.90;;;;;;2124102;27;20034;-74
2022/09/07 05:10:53;;;;;;;18.15;16.15;;;16.20;99.90;;;;;;2123822;27;20538;-74
2022/09/07 05:11:54;;;;;;;17.73;15.93;;;16.40;99.90;;;;;;2123867;27;20610;-74
2022/09/07 05:12:54;;;;;;;17.55;15.75;;;16.60;99.90;;;;;;2123472;27;20064;-74
2022/09/07 05:14:00;;;;;;;17.35;15.60;;;16.80;99.90;;;;;;2123454;27;20023;-74
2022/09/07 05:15:01;;;;;;;16.75;14.80;;;17.00;99.90;;;;;;2122893;27;20023;-74
2022/09/07 05:16:12;;;;;;;16.05;14.45;;;17.20;99.90;;;;;;2122928;27;20117;-74
2022/09/07 05:17:12;;;;;;;;;;;17.50;99.90;;;;;;2124106;27;20109;-75
2022/09/07 05:18:13;;;;;;;17.42;14.45;;;17.60;99.90;;;;;;2123900;27;20052;-75
2022/09/07 05:19:14;;;;;;;15.35;13.65;;;17.80;99.90;;;;;;2123733;27;20065;-72
2022/09/07 05:20:15;;;;;;;18.90;13.45;;;18.00;99.90;;;;;;2118971;27;20034;-76
2022/09/07 05:21:21;;;;;;;15.65;13.73;;;18.00;99.90;;;;;;2123122;27;20034;-75
2022/09/07 05:22:24;;;;;;;15.43;13.82;;;18.10;99.90;;;;;;2115471;28;20031;-75
2022/09/07 05:23:25;;;;;;;15.27;13.77;;;18.10;99.90;;;;;;2123639;27;20450;-73
2022/09/07 05:24:25;;;;;;;15.35;13.85;;;18.10;99.90;;;;;;2123706;27;20034;-74
2022/09/07 05:25:30;;;;;;;16.00;14.40;;;18.00;99.90;;;;;;2123926;27;20489;-74
2022/09/07 05:26:33;;;;;;;15.32;13.73;;;18.00;99.90;;;;;;2123971;27;20076;-75
2022/09/07 05:27:34;;;;;;;15.68;14.10;;;17.80;99.90;;;;;;2123043;27;20041;-73
2022/09/07 05:28:36;;;;;;;15.93;14.27;;;17.70;99.90;;;;;;2123978;27;20019;-73
2022/09/07 05:29:37;;;;;;;16.13;14.52;;;17.60;99.90;;;;;;2123304;27;20429;-71
2022/09/07 05:30:38;;;;;;;15.65;14.07;;;17.50;99.90;;;;;;2122918;27;20026;-74